createdAt,value
2023-03-11T00:00:44.947Z,1.63
2023-03-11T00:03:15.294Z,1.15
2023-03-11T00:05:43.542Z,3.05
2023-03-11T00:08:14.601Z,1.58
2023-03-11T00:10:43.455Z,2.50
2023-03-11T00:13:13.496Z,2.67
2023-03-11T00:15:41.523Z,2.05
2023-03-11T00:18:09.202Z,2.63
2023-03-11T00:20:39.050Z,3.28
2023-03-11T00:23:08.010Z,1.35
2023-03-11T00:25:37.033Z,2.73
2023-03-11T00:28:05.475Z,3.53
2023-03-11T00:30:33.500Z,1.73
2023-03-11T00:33:00.661Z,2.60
2023-03-11T00:35:31.477Z,3.47
2023-03-11T00:38:01.770Z,2.43
2023-03-11T00:40:30.959Z,4.43
2023-03-11T00:42:59.157Z,2.47
2023-03-11T00:45:27.368Z,3.30
2023-03-11T00:47:55.310Z,3.38
2023-03-11T00:50:29.006Z,3.03
2023-03-11T00:52:56.419Z,6.65
2023-03-11T00:55:25.860Z,3.40
2023-03-11T00:57:54.835Z,3.47
2023-03-11T01:00:23.600Z,4.25
2023-03-11T01:02:52.648Z,3.80
2023-03-11T01:05:21.216Z,4.05
2023-03-11T01:07:50.644Z,4.47
2023-03-11T01:10:18.177Z,4.03
2023-03-11T01:12:46.233Z,5.40
2023-03-11T01:15:26.278Z,3.60
2023-03-11T01:17:53.346Z,3.53
2023-03-11T01:20:22.599Z,4.28
2023-03-11T01:22:50.066Z,4.68
2023-03-11T01:25:19.088Z,4.13
2023-03-11T01:27:46.784Z,5.17
2023-03-11T01:30:17.566Z,3.65
2023-03-11T01:32:44.790Z,3.38
2023-03-11T01:35:13.940Z,4.93
2023-03-11T01:37:41.086Z,3.03
2023-03-11T01:40:11.954Z,3.33
2023-03-11T01:42:39.200Z,3.72
2023-03-11T01:45:34.397Z,4.05
2023-03-11T01:48:01.568Z,2.92
2023-03-11T01:50:33.475Z,4.30
2023-03-11T01:53:00.605Z,3.60
2023-03-11T01:55:28.532Z,2.72
2023-03-11T01:57:56.159Z,3.42
2023-03-11T02:00:23.255Z,3.65
2023-03-11T02:02:54.575Z,2.88
2023-03-11T02:05:23.139Z,2.50
2023-03-11T02:07:51.827Z,3.45
2023-03-11T02:10:19.541Z,2.38
2023-03-11T02:12:47.989Z,3.65
2023-03-11T02:15:15.457Z,2.35
2023-03-11T02:17:43.366Z,3.30
2023-03-11T02:20:19.649Z,3.03
2023-03-11T02:22:47.277Z,3.22
2023-03-11T02:25:18.846Z,2.65
2023-03-11T02:27:48.135Z,2.60
2023-03-11T02:30:16.400Z,3.27
2023-03-11T02:32:44.560Z,3.83
2023-03-11T02:35:11.689Z,2.95
2023-03-11T02:37:47.133Z,3.75
2023-03-11T02:40:23.199Z,3.05
2023-03-11T02:42:52.129Z,3.70
2023-03-11T02:45:20.768Z,3.85
2023-03-11T02:47:48.381Z,4.35
2023-03-11T02:50:16.647Z,3.35
2023-03-11T02:52:43.859Z,3.17
2023-03-11T02:55:11.994Z,4.53
2023-03-11T02:57:39.074Z,4.55
2023-03-11T03:00:11.045Z,3.17
2023-03-11T03:02:38.119Z,4.93
2023-03-11T03:05:05.928Z,4.05
2023-03-11T03:07:33.004Z,4.23
2023-03-11T03:10:00.506Z,4.97
2023-03-11T03:12:27.547Z,4.63
2023-03-11T03:14:54.608Z,5.03
2023-03-11T03:17:22.446Z,4.32
2023-03-11T03:19:50.033Z,4.30
2023-03-11T03:22:17.555Z,4.38
2023-03-11T03:24:44.668Z,4.28
2023-03-11T03:27:12.292Z,5.70
2023-03-11T03:29:39.352Z,5.72
2023-03-11T03:32:07.690Z,4.83
2023-03-11T03:34:35.093Z,5.10
2023-03-11T03:37:02.174Z,4.10
2023-03-11T03:39:30.694Z,5.03
2023-03-11T03:41:57.878Z,3.40
2023-03-11T03:44:24.930Z,4.57
2023-03-11T03:46:51.995Z,3.70
2023-03-11T03:49:19.031Z,4.32
2023-03-11T03:51:46.720Z,4.15
2023-03-11T03:54:13.833Z,3.45
2023-03-11T03:56:41.291Z,2.83
2023-03-11T03:59:08.714Z,4.07
2023-03-11T04:01:35.839Z,3.22
2023-03-11T04:04:03.013Z,4.28
2023-03-11T04:06:30.291Z,4.18
2023-03-11T04:08:57.369Z,5.77
2023-03-11T04:11:24.509Z,4.05
2023-03-11T04:13:51.719Z,4.22
2023-03-11T04:16:21.023Z,3.80
2023-03-11T04:18:48.149Z,3.70
2023-03-11T04:21:15.279Z,4.90
2023-03-11T04:23:42.622Z,3.35
2023-03-11T04:26:09.701Z,3.85
2023-03-11T04:28:36.859Z,4.40
2023-03-11T04:31:04.080Z,3.92
2023-03-11T04:33:31.269Z,3.73
2023-03-11T04:35:59.253Z,4.45
2023-03-11T04:38:26.498Z,5.57
2023-03-11T04:40:53.526Z,3.92
2023-03-11T04:43:20.570Z,3.75
2023-03-11T04:45:50.327Z,4.73
2023-03-11T04:48:17.493Z,5.50
2023-03-11T04:50:45.054Z,2.40
2023-03-11T04:53:12.096Z,4.90
2023-03-11T04:55:40.022Z,7.65
2023-03-11T04:58:07.064Z,4.33
2023-03-11T05:00:34.585Z,5.47
2023-03-11T05:03:01.857Z,6.60
2023-03-11T05:05:28.929Z,6.70
2023-03-11T05:07:55.970Z,6.25
2023-03-11T05:10:23.000Z,7.70
2023-03-11T05:12:50.752Z,7.13
2023-03-11T05:15:18.633Z,5.93
2023-03-11T05:17:45.842Z,3.38
2023-03-11T05:20:15.547Z,5.05
2023-03-11T05:22:42.904Z,7.53
2023-03-11T05:25:10.266Z,5.53
2023-03-11T05:27:37.338Z,7.60
2023-03-11T05:30:04.734Z,5.90
2023-03-11T05:32:32.136Z,6.32
2023-03-11T05:34:59.228Z,7.33
2023-03-11T05:37:26.308Z,7.63
2023-03-11T05:39:53.403Z,6.45
2023-03-11T05:42:21.582Z,5.65
2023-03-11T05:44:49.150Z,5.40
2023-03-11T05:47:17.340Z,4.80
2023-03-11T05:49:44.580Z,5.40
2023-03-11T05:52:11.904Z,4.95
2023-03-11T05:54:39.242Z,5.40
2023-03-11T05:57:06.354Z,6.03
2023-03-11T05:59:35.682Z,6.07
2023-03-11T06:02:02.852Z,7.20
2023-03-11T06:04:33.543Z,5.55
2023-03-11T06:07:01.725Z,5.75
2023-03-11T06:09:28.843Z,5.57
2023-03-11T06:11:55.877Z,6.47
2023-03-11T06:14:22.941Z,5.47
2023-03-11T06:16:50.002Z,5.00
2023-03-11T06:19:17.058Z,3.10
2023-03-11T06:21:44.094Z,4.72
2023-03-11T06:24:11.193Z,5.53
2023-03-11T06:26:38.289Z,6.03
2023-03-11T06:29:08.733Z,5.95
2023-03-11T06:31:37.149Z,4.60
2023-03-11T06:34:05.483Z,6.53
2023-03-11T06:36:33.091Z,6.50
2023-03-11T06:39:00.305Z,6.88
2023-03-11T06:41:27.353Z,8.18
2023-03-11T06:43:54.545Z,4.80
2023-03-11T06:46:23.158Z,5.15
2023-03-11T06:48:52.850Z,4.60
2023-03-11T06:51:21.035Z,4.63
2023-03-11T06:53:50.144Z,4.10
2023-03-11T06:56:17.271Z,4.97
2023-03-11T06:58:44.683Z,4.88
2023-03-11T07:01:15.461Z,5.63
2023-03-11T07:03:42.978Z,4.28
2023-03-11T07:06:15.403Z,3.78
2023-03-11T07:08:42.570Z,4.40
2023-03-11T07:11:12.917Z,3.72
2023-03-11T07:13:40.444Z,4.63
2023-03-11T07:16:12.942Z,4.63
2023-03-11T07:18:40.103Z,3.67
2023-03-11T07:21:09.090Z,4.82
2023-03-11T07:23:36.427Z,3.08
2023-03-11T07:26:04.917Z,3.80
2023-03-11T07:28:32.072Z,4.45
2023-03-11T07:30:59.195Z,7.22
2023-03-11T07:33:26.278Z,5.68
2023-03-11T07:35:53.379Z,6.55
2023-03-11T07:38:21.043Z,2.37
2023-03-11T07:40:48.119Z,4.60
2023-03-11T07:43:15.209Z,3.95
2023-03-11T07:45:42.254Z,4.20
2023-03-11T07:48:09.365Z,6.95
2023-03-11T07:50:36.462Z,4.03
2023-03-11T07:53:03.537Z,6.50
2023-03-11T07:55:30.816Z,7.03
2023-03-11T07:57:57.917Z,7.30
2023-03-11T08:00:25.032Z,5.63
2023-03-11T08:02:52.349Z,5.60
2023-03-11T08:05:21.103Z,3.22
2023-03-11T08:07:48.163Z,3.85
2023-03-11T08:10:15.415Z,3.85
2023-03-11T08:12:42.454Z,4.80
2023-03-11T08:15:10.071Z,2.77
2023-03-11T08:17:37.197Z,3.45
2023-03-11T08:20:05.117Z,3.35
2023-03-11T08:22:32.228Z,6.22
2023-03-11T08:24:59.282Z,3.00
2023-03-11T08:27:28.897Z,4.17
2023-03-11T08:29:57.164Z,4.45
2023-03-11T08:32:24.431Z,3.80
2023-03-11T08:34:51.578Z,4.65
2023-03-11T08:37:18.839Z,3.63
2023-03-11T08:39:45.901Z,5.43
2023-03-11T08:42:13.343Z,5.03
2023-03-11T08:44:40.493Z,9.13
2023-03-11T08:47:07.714Z,5.22
2023-03-11T08:49:35.115Z,4.55
2023-03-11T08:52:02.416Z,4.10
2023-03-11T08:54:29.743Z,5.30
2023-03-11T08:56:57.045Z,7.95
2023-03-11T08:59:24.212Z,4.25
2023-03-11T09:01:51.295Z,6.80
2023-03-11T09:04:18.328Z,4.83
2023-03-11T09:06:45.593Z,8.90
2023-03-11T09:09:12.633Z,5.75
2023-03-11T09:11:40.812Z,5.20
2023-03-11T09:14:10.552Z,9.43
2023-03-11T09:16:37.585Z,3.73
2023-03-11T09:19:07.237Z,4.20
2023-03-11T09:21:35.005Z,6.18
2023-03-11T09:24:04.218Z,5.45
2023-03-11T09:26:31.930Z,5.63
2023-03-11T09:29:00.002Z,5.20
2023-03-11T09:31:27.080Z,6.47
2023-03-11T09:33:55.604Z,6.95
2023-03-11T09:36:22.941Z,5.80
2023-03-11T09:38:50.003Z,5.53
2023-03-11T09:41:17.739Z,5.60
2023-03-11T09:44:03.868Z,5.75
2023-03-11T09:46:49.790Z,6.18
2023-03-11T09:49:29.496Z,6.72
2023-03-11T09:52:01.191Z,8.93
2023-03-11T09:54:30.613Z,7.00
2023-03-11T09:56:57.794Z,6.55
2023-03-11T09:59:31.646Z,5.10
2023-03-11T10:01:59.510Z,6.32
2023-03-11T10:04:29.236Z,9.57
2023-03-11T10:06:56.996Z,5.83
2023-03-11T10:09:34.256Z,6.78
2023-03-11T10:12:17.794Z,4.80
2023-03-11T10:15:03.290Z,6.45
2023-03-11T10:17:52.587Z,5.85
2023-03-11T10:20:23.531Z,4.47
2023-03-11T10:23:00.166Z,6.03
2023-03-11T10:25:54.437Z,5.43
2023-03-11T10:28:26.236Z,8.02
2023-03-11T10:30:57.213Z,4.75
2023-03-11T10:33:29.579Z,4.97
2023-03-11T10:35:58.994Z,5.80
2023-03-11T10:38:33.722Z,5.70
2023-03-11T10:41:05.908Z,5.03
2023-03-11T10:43:39.523Z,5.75
2023-03-11T10:46:16.937Z,7.67
2023-03-11T10:48:44.047Z,5.95
2023-03-11T10:51:14.003Z,4.85
2023-03-11T10:53:50.890Z,7.68
2023-03-11T10:56:30.979Z,8.73
2023-03-11T10:58:59.805Z,5.93
2023-03-11T11:01:29.002Z,6.75
2023-03-11T11:03:57.934Z,5.38
2023-03-11T11:06:29.123Z,5.80
2023-03-11T11:09:15.117Z,7.05
2023-03-11T11:11:43.083Z,5.50
2023-03-11T11:14:10.392Z,6.10
2023-03-11T11:16:37.814Z,5.70
2023-03-11T11:19:09.759Z,6.18
2023-03-11T11:21:41.449Z,5.75
2023-03-11T11:24:24.399Z,10.10
2023-03-11T11:27:04.698Z,4.97
2023-03-11T11:29:32.010Z,7.30
2023-03-11T11:32:18.813Z,5.55
2023-03-11T11:35:06.928Z,10.07
2023-03-11T11:37:36.141Z,7.27
2023-03-11T11:40:14.035Z,6.25
2023-03-11T11:43:03.695Z,7.75
2023-03-11T11:45:37.346Z,6.15
2023-03-11T11:48:23.060Z,7.80
2023-03-11T11:50:57.307Z,8.73
2023-03-11T11:53:50.020Z,8.18
2023-03-11T11:56:17.069Z,7.50
2023-03-11T11:58:44.087Z,7.50
2023-03-11T12:01:21.903Z,6.95
2023-03-11T12:04:13.883Z,6.70
2023-03-11T12:07:02.362Z,6.03
2023-03-11T12:09:48.955Z,4.95
2023-03-11T12:12:42.390Z,8.07
2023-03-11T12:15:24.430Z,8.15
2023-03-11T12:17:53.080Z,7.50
2023-03-11T12:20:32.669Z,8.68
2023-03-11T12:23:16.631Z,9.18
2023-03-11T12:26:03.384Z,8.85
2023-03-11T12:28:39.663Z,7.90
2023-03-11T12:31:10.062Z,6.63
2023-03-11T12:33:43.472Z,5.65
2023-03-11T12:36:23.625Z,7.85
2023-03-11T12:38:51.396Z,7.25
2023-03-11T12:41:27.519Z,7.78
2023-03-11T12:43:59.978Z,8.20
2023-03-11T12:46:55.582Z,6.75
2023-03-11T12:49:27.543Z,6.60
2023-03-11T12:52:16.104Z,8.30
2023-03-11T12:55:03.860Z,6.38
2023-03-11T12:57:37.655Z,6.47
2023-03-11T13:00:23.124Z,5.88
2023-03-11T13:03:47.846Z,7.47
2023-03-11T13:06:45.621Z,5.25
2023-03-11T13:09:16.975Z,6.50
2023-03-11T13:11:46.264Z,7.93
2023-03-11T13:14:29.341Z,6.68
2023-03-11T13:17:16.932Z,8.68
2023-03-11T13:19:49.358Z,11.32
2023-03-11T13:22:43.406Z,7.75
2023-03-11T13:25:29.965Z,7.27
2023-03-11T13:28:06.931Z,9.70
2023-03-11T13:30:39.840Z,8.65
2023-03-11T13:33:25.020Z,7.13
2023-03-11T13:36:13.544Z,7.05
2023-03-11T13:39:00.998Z,7.20
2023-03-11T13:41:32.031Z,6.68
2023-03-11T13:44:13.645Z,8.68
2023-03-11T13:46:42.440Z,7.30
2023-03-11T13:49:19.843Z,9.20
2023-03-11T13:51:47.622Z,8.83
2023-03-11T13:54:20.260Z,8.30
2023-03-11T13:56:51.138Z,8.75
2023-03-11T13:59:28.805Z,8.88
2023-03-11T14:01:58.731Z,8.80
2023-03-11T14:04:30.792Z,9.43
2023-03-11T14:06:58.785Z,8.52
2023-03-11T14:09:28.324Z,9.65
2023-03-11T14:12:07.723Z,7.82
2023-03-11T14:14:43.774Z,8.63
2023-03-11T14:17:18.335Z,8.80
2023-03-11T14:20:04.763Z,7.25
2023-03-11T14:22:32.282Z,7.18
2023-03-11T14:25:02.163Z,10.07
2023-03-11T14:27:30.246Z,8.10
2023-03-11T14:29:57.361Z,7.83
2023-03-11T14:32:35.500Z,8.30
2023-03-11T14:35:17.044Z,8.63
2023-03-11T14:37:44.344Z,9.77
2023-03-11T14:40:27.066Z,8.80
2023-03-11T14:42:56.300Z,10.27
2023-03-11T14:45:25.380Z,8.18
2023-03-11T14:48:06.750Z,8.38
2023-03-11T14:50:35.226Z,11.05
2023-03-11T14:53:09.306Z,6.65
2023-03-11T14:55:40.451Z,8.67
2023-03-11T14:58:17.822Z,7.95
2023-03-11T15:01:14.643Z,9.00
2023-03-11T15:03:49.259Z,7.30
2023-03-11T15:06:18.681Z,7.07
2023-03-11T15:08:48.031Z,8.37
2023-03-11T15:11:15.402Z,10.95
2023-03-11T15:13:44.194Z,7.53
2023-03-11T15:16:40.982Z,10.05
2023-03-11T15:19:43.429Z,7.95
2023-03-11T15:22:19.537Z,7.47
2023-03-11T15:24:50.741Z,8.50
2023-03-11T15:27:32.826Z,8.82
2023-03-11T15:30:01.262Z,9.50
2023-03-11T15:32:39.724Z,8.18
2023-03-11T15:35:12.791Z,10.37
2023-03-11T15:37:41.721Z,7.38
2023-03-11T15:40:42.445Z,9.75
2023-03-11T15:43:14.504Z,7.82
2023-03-11T15:45:42.426Z,12.70
2023-03-11T15:48:13.214Z,10.60
2023-03-11T15:50:53.823Z,9.40
2023-03-11T15:53:22.700Z,10.43
2023-03-11T15:55:50.228Z,9.75
2023-03-11T15:58:18.850Z,11.50
2023-03-11T16:00:48.566Z,7.80
2023-03-11T16:03:15.992Z,8.70
2023-03-11T16:05:43.116Z,10.23
2023-03-11T16:08:10.226Z,6.88
2023-03-11T16:10:37.523Z,8.88
2023-03-11T16:13:04.623Z,8.60
2023-03-11T16:15:37.789Z,8.45
2023-03-11T16:18:07.455Z,9.70
2023-03-11T16:21:03.003Z,10.52
2023-03-11T16:23:44.790Z,6.95
2023-03-11T16:26:19.738Z,8.60
2023-03-11T16:28:46.815Z,7.38
2023-03-11T16:31:14.586Z,7.60
2023-03-11T16:33:41.637Z,9.02
2023-03-11T16:36:10.397Z,11.15
2023-03-11T16:38:49.028Z,8.97
2023-03-11T16:41:16.821Z,7.93
2023-03-11T16:43:44.400Z,7.10
2023-03-11T16:46:11.480Z,9.00
2023-03-11T16:48:38.630Z,9.25
2023-03-11T16:51:06.162Z,7.33
2023-03-11T16:53:33.269Z,10.07
2023-03-11T16:56:00.358Z,8.25
2023-03-11T16:58:27.652Z,9.10
2023-03-11T17:00:54.795Z,8.13
2023-03-11T17:03:22.275Z,9.70
2023-03-11T17:05:49.484Z,8.55
2023-03-11T17:08:18.218Z,9.43
2023-03-11T17:10:45.919Z,8.95
2023-03-11T17:13:14.002Z,9.10
2023-03-11T17:15:44.411Z,7.63
2023-03-11T17:18:11.843Z,10.15
2023-03-11T17:20:40.388Z,11.13
2023-03-11T17:23:07.477Z,9.68
2023-03-11T17:25:34.634Z,11.85
2023-03-11T17:28:01.709Z,15.43
2023-03-11T17:30:36.944Z,11.50
2023-03-11T17:33:04.733Z,9.35
2023-03-11T17:35:31.968Z,12.27
2023-03-11T17:37:59.266Z,9.55
2023-03-11T17:40:27.224Z,10.57
2023-03-11T17:42:54.268Z,8.20
2023-03-11T17:45:21.294Z,10.20
2023-03-11T17:47:48.354Z,14.55
2023-03-11T17:50:15.494Z,10.48
2023-03-11T17:52:42.908Z,11.93
2023-03-11T17:55:10.175Z,11.57
2023-03-11T17:57:44.952Z,10.00
2023-03-11T18:00:15.634Z,9.60
2023-03-11T18:02:42.712Z,9.15
2023-03-11T18:05:10.259Z,11.43
2023-03-11T18:07:47.010Z,10.40
2023-03-11T18:10:15.140Z,12.15
2023-03-11T18:12:46.355Z,9.13
2023-03-11T18:15:20.392Z,9.25
2023-03-11T18:17:48.114Z,9.53
2023-03-11T18:20:15.956Z,11.85
2023-03-11T18:22:46.635Z,16.00
2023-03-11T18:25:14.496Z,14.90
2023-03-11T18:27:41.618Z,15.93
2023-03-11T18:30:11.129Z,10.60
2023-03-11T18:32:38.526Z,8.27
2023-03-11T18:35:06.037Z,9.00
2023-03-11T18:37:33.659Z,10.15
2023-03-11T18:40:00.769Z,10.40
2023-03-11T18:42:28.239Z,7.43
2023-03-11T18:44:55.285Z,8.18
2023-03-11T18:47:23.451Z,8.73
2023-03-11T18:49:50.556Z,8.60
2023-03-11T18:52:17.662Z,10.38
2023-03-11T18:54:44.790Z,7.83
2023-03-11T18:57:12.135Z,9.43
2023-03-11T18:59:39.209Z,6.82
2023-03-11T19:02:06.496Z,8.85
2023-03-11T19:04:33.648Z,10.25
2023-03-11T19:07:00.709Z,7.03
2023-03-11T19:09:27.913Z,9.57
2023-03-11T19:11:54.959Z,12.38
2023-03-11T19:14:22.093Z,8.77
2023-03-11T19:16:50.339Z,6.85
2023-03-11T19:19:18.172Z,7.73
2023-03-11T19:21:47.524Z,9.73
2023-03-11T19:24:15.309Z,6.22
2023-03-11T19:26:45.431Z,8.98
2023-03-11T19:29:14.093Z,6.28
2023-03-11T19:31:43.689Z,12.57
2023-03-11T19:34:11.435Z,8.32
2023-03-11T19:36:39.423Z,9.20
2023-03-11T19:39:06.988Z,10.90
2023-03-11T19:41:34.260Z,7.00
2023-03-11T19:44:03.971Z,9.00
2023-03-11T19:46:34.464Z,8.82
2023-03-11T19:49:02.248Z,9.13
2023-03-11T19:51:38.781Z,8.05
2023-03-11T19:54:16.130Z,13.73
2023-03-11T19:56:43.737Z,15.07
2023-03-11T19:59:10.902Z,9.63
2023-03-11T20:01:37.945Z,10.98
2023-03-11T20:04:05.427Z,13.10
2023-03-11T20:06:32.550Z,10.80
2023-03-11T20:08:59.769Z,11.93
2023-03-11T20:11:27.149Z,15.20
2023-03-11T20:13:54.478Z,11.95
2023-03-11T20:16:22.560Z,11.68
2023-03-11T20:18:50.689Z,9.57
2023-03-11T20:21:18.168Z,9.93
2023-03-11T20:23:45.254Z,11.38
2023-03-11T20:26:13.893Z,14.57
2023-03-11T20:28:41.281Z,9.82
2023-03-11T20:31:17.161Z,11.90
2023-03-11T20:33:44.772Z,14.13
2023-03-11T20:36:16.003Z,14.27
2023-03-11T20:38:43.627Z,10.95
2023-03-11T20:41:10.843Z,10.07
2023-03-11T20:43:38.382Z,9.70
2023-03-11T20:46:06.519Z,14.03
2023-03-11T20:48:35.774Z,11.88
2023-03-11T20:51:04.920Z,10.55
2023-03-11T20:53:32.384Z,10.93
2023-03-11T20:56:05.119Z,10.70
2023-03-11T20:58:32.283Z,11.00
2023-03-11T21:00:59.422Z,10.00
2023-03-11T21:03:26.602Z,11.48
2023-03-11T21:05:53.853Z,10.75
2023-03-11T21:08:21.238Z,9.57
2023-03-11T21:10:48.390Z,12.03
2023-03-11T21:13:15.695Z,14.25
2023-03-11T21:15:42.841Z,12.45
2023-03-11T21:18:10.359Z,8.52
2023-03-11T21:20:37.398Z,7.72
2023-03-11T21:23:05.047Z,8.00
2023-03-11T21:25:32.181Z,7.70
2023-03-11T21:27:59.243Z,7.68
2023-03-11T21:30:26.386Z,12.30
2023-03-11T21:32:53.842Z,6.50
2023-03-11T21:35:21.193Z,10.10
2023-03-11T21:37:48.421Z,6.43
2023-03-11T21:40:15.639Z,10.35
2023-03-11T21:42:42.879Z,10.85
2023-03-11T21:45:10.732Z,6.93
2023-03-11T21:47:38.116Z,6.30
2023-03-11T21:50:06.383Z,7.15
2023-03-11T21:52:34.628Z,4.95
2023-03-11T21:55:01.770Z,8.32
2023-03-11T21:57:28.801Z,10.27
2023-03-11T21:59:55.873Z,7.53
2023-03-11T22:02:23.053Z,5.30
2023-03-11T22:04:50.837Z,5.60
2023-03-11T22:07:18.172Z,6.35
2023-03-11T22:09:45.451Z,6.57
2023-03-11T22:12:12.543Z,7.43
2023-03-11T22:14:39.797Z,6.63
2023-03-11T22:17:06.893Z,7.45
2023-03-11T22:19:34.168Z,6.60
2023-03-11T22:22:01.286Z,14.48
2023-03-11T22:24:28.413Z,7.17
2023-03-11T22:26:55.730Z,6.55
2023-03-11T22:29:22.854Z,5.88
2023-03-11T22:31:49.970Z,14.38
2023-03-11T22:34:17.835Z,6.97
2023-03-11T22:36:44.900Z,6.33
2023-03-11T22:39:12.003Z,6.68
2023-03-11T22:41:39.791Z,7.78
2023-03-11T22:44:06.864Z,7.20
2023-03-11T22:46:34.106Z,9.88
2023-03-11T22:49:01.193Z,8.60
2023-03-11T22:51:28.428Z,6.90
2023-03-11T22:53:55.928Z,5.93
2023-03-11T22:56:23.089Z,5.35
2023-03-11T22:58:50.153Z,4.47
2023-03-11T23:01:17.467Z,5.20
2023-03-11T23:03:45.104Z,5.97
2023-03-11T23:06:15.501Z,8.73
2023-03-11T23:08:43.368Z,6.70
2023-03-11T23:11:13.301Z,6.10
2023-03-11T23:13:41.263Z,7.67
2023-03-11T23:16:21.970Z,9.95
2023-03-11T23:18:51.444Z,8.27
2023-03-11T23:21:22.490Z,5.57
2023-03-11T23:23:49.680Z,5.90
2023-03-11T23:26:17.133Z,6.13
2023-03-11T23:28:45.683Z,4.40
2023-03-11T23:31:14.550Z,7.75
2023-03-11T23:33:41.894Z,6.68
2023-03-11T23:36:11.524Z,10.10
2023-03-11T23:38:38.963Z,5.60
2023-03-11T23:41:11.407Z,6.32
2023-03-11T23:43:39.015Z,6.68
2023-03-11T23:46:06.263Z,9.88
2023-03-11T23:48:34.349Z,5.57
2023-03-11T23:51:01.392Z,6.10
2023-03-11T23:53:28.696Z,7.93
2023-03-11T23:55:55.759Z,4.95
2023-03-11T23:58:23.115Z,8.15
